sensor_id;sensor_type;location;lat;lon;timestamp;P1;durP1;ratioP1;P2;durP2;ratioP2
69057;SDS011;56128;37.534;-122.308;2023-09-19T01:49:45;6.07;;;3.40;;
69057;SDS011;56128;37.534;-122.308;2023-09-19T01:52:43;5.93;;;3.33;;
69057;SDS011;56128;37.534;-122.308;2023-09-19T01:55:41;6.93;;;3.20;;
69057;SDS011;56128;37.534;-122.308;2023-09-19T01:58:27;6.45;;;3.30;;
69057;SDS011;56128;37.534;-122.308;2023-09-19T02:01:15;9.23;;;3.70;;
69057;SDS011;56128;37.534;-122.308;2023-09-19T02:04:13;6.25;;;3.50;;
69057;SDS011;56128;37.534;-122.308;2023-09-19T02:07:03;5.78;;;3.67;;
69057;SDS011;56128;37.534;-122.308;2023-09-19T02:17:19;8.30;;;4.10;;
69057;SDS011;56128;37.534;-122.308;2023-09-19T02:19:52;7.88;;;3.85;;
69057;SDS011;56128;37.534;-122.308;2023-09-19T02:22:22;6.53;;;4.18;;
69057;SDS011;56128;37.534;-122.308;2023-09-19T02:25:00;7.75;;;3.75;;
69057;SDS011;56128;37.534;-122.308;2023-09-19T02:27:29;5.70;;;3.45;;
69057;SDS011;56128;37.534;-122.308;2023-09-19T02:30:19;5.32;;;3.45;;
69057;SDS011;56128;37.534;-122.308;2023-09-19T02:32:54;7.13;;;4.22;;
69057;SDS011;56128;37.534;-122.308;2023-09-19T02:35:38;8.50;;;3.90;;
69057;SDS011;56128;37.534;-122.308;2023-09-19T02:50:41;6.13;;;3.70;;
69057;SDS011;56128;37.534;-122.308;2023-09-19T04:58:33;9.10;;;4.50;;
69057;SDS011;56128;37.534;-122.308;2023-09-19T05:01:05;8.32;;;4.70;;
69057;SDS011;56128;37.534;-122.308;2023-09-19T05:03:36;6.75;;;4.30;;
69057;SDS011;56128;37.534;-122.308;2023-09-19T05:06:03;6.65;;;4.03;;
69057;SDS011;56128;37.534;-122.308;2023-09-19T05:08:30;6.72;;;4.20;;
69057;SDS011;56128;37.534;-122.308;2023-09-19T05:11:06;7.45;;;4.63;;
69057;SDS011;56128;37.534;-122.308;2023-09-19T05:13:34;8.50;;;4.60;;
69057;SDS011;56128;37.534;-122.308;2023-09-19T05:16:07;9.73;;;4.93;;
69057;SDS011;56128;37.534;-122.308;2023-09-19T05:18:35;7.30;;;4.40;;
69057;SDS011;56128;37.534;-122.308;2023-09-19T05:21:04;7.95;;;4.90;;
69057;SDS011;56128;37.534;-122.308;2023-09-19T05:23:36;8.25;;;5.05;;
69057;SDS011;56128;37.534;-122.308;2023-09-19T05:26:13;9.75;;;5.70;;
69057;SDS011;56128;37.534;-122.308;2023-09-19T05:28:41;7.00;;;4.75;;
69057;SDS011;56128;37.534;-122.308;2023-09-19T05:31:19;8.48;;;5.10;;
69057;SDS011;56128;37.534;-122.308;2023-09-19T05:33:51;8.50;;;5.20;;
69057;SDS011;56128;37.534;-122.308;2023-09-19T05:36:18;10.20;;;5.28;;
69057;SDS011;56128;37.534;-122.308;2023-09-19T05:56:51;11.30;;;6.15;;
69057;SDS011;56128;37.534;-122.308;2023-09-19T05:59:19;8.38;;;5.60;;
69057;SDS011;56128;37.534;-122.308;2023-09-19T06:01:45;9.40;;;5.57;;
69057;SDS011;56128;37.534;-122.308;2023-09-19T06:04:12;8.48;;;5.80;;
69057;SDS011;56128;37.534;-122.308;2023-09-19T06:06:38;8.70;;;5.95;;
69057;SDS011;56128;37.534;-122.308;2023-09-19T06:09:05;11.85;;;6.20;;
69057;SDS011;56128;37.534;-122.308;2023-09-19T06:11:35;13.50;;;6.88;;
69057;SDS011;56128;37.534;-122.308;2023-09-19T06:14:04;10.82;;;6.28;;
69057;SDS011;56128;37.534;-122.308;2023-09-19T06:16:31;9.27;;;6.22;;
69057;SDS011;56128;37.534;-122.308;2023-09-19T06:18:57;10.07;;;5.95;;
69057;SDS011;56128;37.534;-122.308;2023-09-19T06:21:25;10.05;;;5.97;;
69057;SDS011;56128;37.534;-122.308;2023-09-19T06:23:53;11.07;;;6.43;;
69057;SDS011;56128;37.534;-122.308;2023-09-19T06:26:19;9.55;;;6.40;;
69057;SDS011;56128;37.534;-122.308;2023-09-19T06:28:46;10.40;;;6.95;;
69057;SDS011;56128;37.534;-122.308;2023-09-19T06:31:12;9.45;;;6.53;;
69057;SDS011;56128;37.534;-122.308;2023-09-19T06:33:38;11.07;;;6.65;;
69057;SDS011;56128;37.534;-122.308;2023-09-19T06:36:08;10.95;;;6.22;;
69057;SDS011;56128;37.534;-122.308;2023-09-19T06:38:34;10.85;;;6.53;;
69057;SDS011;56128;37.534;-122.308;2023-09-19T06:41:02;10.60;;;6.55;;
69057;SDS011;56128;37.534;-122.308;2023-09-19T06:43:32;9.88;;;6.47;;
69057;SDS011;56128;37.534;-122.308;2023-09-19T06:46:02;10.18;;;6.18;;
69057;SDS011;56128;37.534;-122.308;2023-09-19T06:48:29;9.15;;;6.55;;
69057;SDS011;56128;37.534;-122.308;2023-09-19T06:50:56;10.88;;;6.97;;
69057;SDS011;56128;37.534;-122.308;2023-09-19T06:53:24;9.63;;;5.90;;
69057;SDS011;56128;37.534;-122.308;2023-09-19T06:55:50;12.30;;;7.13;;
69057;SDS011;56128;37.534;-122.308;2023-09-19T06:58:17;9.20;;;6.40;;
69057;SDS011;56128;37.534;-122.308;2023-09-19T07:00:44;9.48;;;6.38;;
69057;SDS011;56128;37.534;-122.308;2023-09-19T07:03:10;11.93;;;6.57;;
69057;SDS011;56128;37.534;-122.308;2023-09-19T07:05:39;10.75;;;6.88;;
69057;SDS011;56128;37.534;-122.308;2023-09-19T07:08:10;13.05;;;6.93;;
69057;SDS011;56128;37.534;-122.308;2023-09-19T07:10:38;10.13;;;6.65;;
69057;SDS011;56128;37.534;-122.308;2023-09-19T07:13:13;8.55;;;6.07;;
69057;SDS011;56128;37.534;-122.308;2023-09-19T07:15:42;12.82;;;7.10;;
69057;SDS011;56128;37.534;-122.308;2023-09-19T07:18:13;10.38;;;6.28;;
69057;SDS011;56128;37.534;-122.308;2023-09-19T07:20:41;10.82;;;6.72;;
69057;SDS011;56128;37.534;-122.308;2023-09-19T07:23:16;10.52;;;6.88;;
69057;SDS011;56128;37.534;-122.308;2023-09-19T07:25:44;10.45;;;6.80;;
69057;SDS011;56128;37.534;-122.308;2023-09-19T07:28:11;12.27;;;6.78;;
69057;SDS011;56128;37.534;-122.308;2023-09-19T07:30:39;12.38;;;6.95;;
69057;SDS011;56128;37.534;-122.308;2023-09-19T07:33:08;12.73;;;7.07;;
69057;SDS011;56128;37.534;-122.308;2023-09-19T07:35:39;12.52;;;7.68;;
69057;SDS011;56128;37.534;-122.308;2023-09-19T07:38:06;12.25;;;6.88;;
69057;SDS011;56128;37.534;-122.308;2023-09-19T07:40:33;13.25;;;7.75;;
69057;SDS011;56128;37.534;-122.308;2023-09-19T07:43:03;11.63;;;7.47;;
69057;SDS011;56128;37.534;-122.308;2023-09-19T07:45:30;10.93;;;7.40;;
69057;SDS011;56128;37.534;-122.308;2023-09-19T07:47:57;13.57;;;7.50;;
69057;SDS011;56128;37.534;-122.308;2023-09-19T07:50:42;12.60;;;8.00;;
69057;SDS011;56128;37.534;-122.308;2023-09-19T07:53:11;10.90;;;7.55;;
69057;SDS011;56128;37.534;-122.308;2023-09-19T07:55:42;13.38;;;7.65;;
69057;SDS011;56128;37.534;-122.308;2023-09-19T07:58:14;15.82;;;8.10;;
69057;SDS011;56128;37.534;-122.308;2023-09-19T08:00:41;12.70;;;8.00;;
69057;SDS011;56128;37.534;-122.308;2023-09-19T08:03:07;14.65;;;8.40;;
69057;SDS011;56128;37.534;-122.308;2023-09-19T08:05:34;14.10;;;8.15;;
69057;SDS011;56128;37.534;-122.308;2023-09-19T08:08:02;13.73;;;8.48;;
69057;SDS011;56128;37.534;-122.308;2023-09-19T08:10:33;13.57;;;8.63;;
69057;SDS011;56128;37.534;-122.308;2023-09-19T08:13:00;14.85;;;7.97;;
69057;SDS011;56128;37.534;-122.308;2023-09-19T08:18:10;15.95;;;8.73;;
69057;SDS011;56128;37.534;-122.308;2023-09-19T08:20:39;14.45;;;8.35;;
69057;SDS011;56128;37.534;-122.308;2023-09-19T08:23:07;13.35;;;7.72;;
69057;SDS011;56128;37.534;-122.308;2023-09-19T08:25:34;13.68;;;7.80;;
69057;SDS011;56128;37.534;-122.308;2023-09-19T08:28:00;14.35;;;8.77;;
69057;SDS011;56128;37.534;-122.308;2023-09-19T08:30:28;17.02;;;9.70;;
69057;SDS011;56128;37.534;-122.308;2023-09-19T08:32:59;16.10;;;9.35;;
69057;SDS011;56128;37.534;-122.308;2023-09-19T08:35:26;15.82;;;9.23;;
69057;SDS011;56128;37.534;-122.308;2023-09-19T08:38:02;13.60;;;8.63;;
69057;SDS011;56128;37.534;-122.308;2023-09-19T08:40:32;17.30;;;9.10;;
69057;SDS011;56128;37.534;-122.308;2023-09-19T08:43:04;17.17;;;9.30;;
69057;SDS011;56128;37.534;-122.308;2023-09-19T08:45:33;16.77;;;8.98;;
69057;SDS011;56128;37.534;-122.308;2023-09-19T08:50:57;14.10;;;9.40;;
69057;SDS011;56128;37.534;-122.308;2023-09-19T08:53:42;15.30;;;9.35;;
69057;SDS011;56128;37.534;-122.308;2023-09-19T08:56:23;16.83;;;10.00;;
69057;SDS011;56128;37.534;-122.308;2023-09-19T08:59:25;19.52;;;9.30;;
69057;SDS011;56128;37.534;-122.308;2023-09-19T09:01:49;17.65;;;9.25;;
69057;SDS011;56128;37.534;-122.308;2023-09-19T09:04:19;17.63;;;10.13;;
69057;SDS011;56128;37.534;-122.308;2023-09-19T09:06:45;19.25;;;10.40;;
69057;SDS011;56128;37.534;-122.308;2023-09-19T09:09:16;16.85;;;10.13;;
69057;SDS011;56128;37.534;-122.308;2023-09-19T09:11:47;19.02;;;10.43;;
69057;SDS011;56128;37.534;-122.308;2023-09-19T09:14:16;17.98;;;10.50;;
69057;SDS011;56128;37.534;-122.308;2023-09-19T09:16:46;17.60;;;10.18;;
69057;SDS011;56128;37.534;-122.308;2023-09-19T09:19:16;19.10;;;10.00;;
69057;SDS011;56128;37.534;-122.308;2023-09-19T09:21:49;16.88;;;9.60;;
69057;SDS011;56128;37.534;-122.308;2023-09-19T09:24:26;19.52;;;10.57;;
69057;SDS011;56128;37.534;-122.308;2023-09-19T09:26:59;20.83;;;10.23;;
69057;SDS011;56128;37.534;-122.308;2023-09-19T09:29:42;19.15;;;11.52;;
69057;SDS011;56128;37.534;-122.308;2023-09-19T09:32:21;18.75;;;10.23;;
69057;SDS011;56128;37.534;-122.308;2023-09-19T09:34:57;15.98;;;9.05;;
69057;SDS011;56128;37.534;-122.308;2023-09-19T09:37:25;15.55;;;9.40;;
69057;SDS011;56128;37.534;-122.308;2023-09-19T09:39:56;15.85;;;10.13;;
69057;SDS011;56128;37.534;-122.308;2023-09-19T09:42:42;16.17;;;10.00;;
69057;SDS011;56128;37.534;-122.308;2023-09-19T09:45:12;16.60;;;11.00;;
69057;SDS011;56128;37.534;-122.308;2023-09-19T09:47:43;18.95;;;10.27;;
69057;SDS011;56128;37.534;-122.308;2023-09-19T09:50:28;17.45;;;10.57;;
69057;SDS011;56128;37.534;-122.308;2023-09-19T09:53:26;19.20;;;8.95;;
69057;SDS011;56128;37.534;-122.308;2023-09-19T09:55:59;14.15;;;9.27;;
69057;SDS011;56128;37.534;-122.308;2023-09-19T09:58:25;16.30;;;10.15;;
69057;SDS011;56128;37.534;-122.308;2023-09-19T10:00:55;20.05;;;10.05;;
69057;SDS011;56128;37.534;-122.308;2023-09-19T10:03:32;18.27;;;10.27;;
69057;SDS011;56128;37.534;-122.308;2023-09-19T10:06:06;19.88;;;10.15;;
69057;SDS011;56128;37.534;-122.308;2023-09-19T10:12:03;18.30;;;9.60;;
69057;SDS011;56128;37.534;-122.308;2023-09-19T10:14:35;20.45;;;10.45;;
69057;SDS011;56128;37.534;-122.308;2023-09-19T10:17:05;17.85;;;10.27;;
69057;SDS011;56128;37.534;-122.308;2023-09-19T10:22:31;21.75;;;10.88;;
69057;SDS011;56128;37.534;-122.308;2023-09-19T10:25:00;19.95;;;10.68;;
69057;SDS011;56128;37.534;-122.308;2023-09-19T10:27:32;17.70;;;10.82;;
69057;SDS011;56128;37.534;-122.308;2023-09-19T10:30:04;19.65;;;10.40;;
69057;SDS011;56128;37.534;-122.308;2023-09-19T10:32:34;18.80;;;10.52;;
69057;SDS011;56128;37.534;-122.308;2023-09-19T10:35:06;24.63;;;11.90;;
69057;SDS011;56128;37.534;-122.308;2023-09-19T10:37:33;22.50;;;11.63;;
69057;SDS011;56128;37.534;-122.308;2023-09-19T10:40:06;19.98;;;10.73;;
69057;SDS011;56128;37.534;-122.308;2023-09-19T10:42:34;19.70;;;11.15;;
69057;SDS011;56128;37.534;-122.308;2023-09-19T10:45:07;22.50;;;11.18;;
69057;SDS011;56128;37.534;-122.308;2023-09-19T10:47:38;21.23;;;12.13;;
69057;SDS011;56128;37.534;-122.308;2023-09-19T10:50:06;20.73;;;11.35;;
69057;SDS011;56128;37.534;-122.308;2023-09-19T10:52:39;22.85;;;12.02;;
69057;SDS011;56128;37.534;-122.308;2023-09-19T10:55:08;23.13;;;11.63;;
69057;SDS011;56128;37.534;-122.308;2023-09-19T10:57:36;21.25;;;12.38;;
69057;SDS011;56128;37.534;-122.308;2023-09-19T11:00:03;25.15;;;12.70;;
69057;SDS011;56128;37.534;-122.308;2023-09-19T11:08:30;31.08;;;13.45;;
69057;SDS011;56128;37.534;-122.308;2023-09-19T11:14:14;27.02;;;13.02;;
69057;SDS011;56128;37.534;-122.308;2023-09-19T11:30:39;25.83;;;13.45;;
69057;SDS011;56128;37.534;-122.308;2023-09-19T11:33:18;26.45;;;14.18;;
69057;SDS011;56128;37.534;-122.308;2023-09-19T11:43:51;29.80;;;13.43;;
69057;SDS011;56128;37.534;-122.308;2023-09-19T11:46:33;33.58;;;14.27;;
69057;SDS011;56128;37.534;-122.308;2023-09-19T11:49:06;31.48;;;14.55;;
69057;SDS011;56128;37.534;-122.308;2023-09-19T11:51:41;29.73;;;15.13;;
69057;SDS011;56128;37.534;-122.308;2023-09-19T11:54:13;30.33;;;14.52;;
69057;SDS011;56128;37.534;-122.308;2023-09-19T11:56:50;36.88;;;14.40;;
69057;SDS011;56128;37.534;-122.308;2023-09-19T11:59:30;32.30;;;14.55;;
69057;SDS011;56128;37.534;-122.308;2023-09-19T12:01:58;31.08;;;14.35;;
69057;SDS011;56128;37.534;-122.308;2023-09-19T12:04:48;29.10;;;14.25;;
69057;SDS011;56128;37.534;-122.308;2023-09-19T12:07:19;31.95;;;14.63;;
69057;SDS011;56128;37.534;-122.308;2023-09-19T12:10:20;31.80;;;14.40;;
69057;SDS011;56128;37.534;-122.308;2023-09-19T12:12:46;31.25;;;13.93;;
69057;SDS011;56128;37.534;-122.308;2023-09-19T12:15:14;37.47;;;14.90;;
69057;SDS011;56128;37.534;-122.308;2023-09-19T12:17:48;29.85;;;15.30;;
69057;SDS011;56128;37.534;-122.308;2023-09-19T12:20:14;36.65;;;16.65;;
69057;SDS011;56128;37.534;-122.308;2023-09-19T12:22:45;34.28;;;16.05;;
69057;SDS011;56128;37.534;-122.308;2023-09-19T12:25:12;32.95;;;15.25;;
69057;SDS011;56128;37.534;-122.308;2023-09-19T12:27:45;40.83;;;16.45;;
69057;SDS011;56128;37.534;-122.308;2023-09-19T12:30:18;39.60;;;16.90;;
69057;SDS011;56128;37.534;-122.308;2023-09-19T12:32:47;35.45;;;16.23;;
69057;SDS011;56128;37.534;-122.308;2023-09-19T12:35:30;39.50;;;16.98;;
69057;SDS011;56128;37.534;-122.308;2023-09-19T12:38:01;39.70;;;17.48;;
69057;SDS011;56128;37.534;-122.308;2023-09-19T12:40:28;42.20;;;17.92;;
69057;SDS011;56128;37.534;-122.308;2023-09-19T12:42:58;36.10;;;17.48;;
69057;SDS011;56128;37.534;-122.308;2023-09-19T12:45:27;38.28;;;17.05;;
69057;SDS011;56128;37.534;-122.308;2023-09-19T12:51:12;41.10;;;19.15;;
69057;SDS011;56128;37.534;-122.308;2023-09-19T12:53:44;40.88;;;17.90;;
69057;SDS011;56128;37.534;-122.308;2023-09-19T12:56:15;44.63;;;17.92;;
69057;SDS011;56128;37.534;-122.308;2023-09-19T12:58:52;42.83;;;18.85;;
69057;SDS011;56128;37.534;-122.308;2023-09-19T13:01:20;36.38;;;17.15;;
69057;SDS011;56128;37.534;-122.308;2023-09-19T13:06:50;36.58;;;17.80;;
69057;SDS011;56128;37.534;-122.308;2023-09-19T13:09:17;38.20;;;17.63;;
69057;SDS011;56128;37.534;-122.308;2023-09-19T13:11:45;40.85;;;16.77;;
69057;SDS011;56128;37.534;-122.308;2023-09-19T13:16:55;40.47;;;17.83;;
69057;SDS011;56128;37.534;-122.308;2023-09-19T13:22:01;43.22;;;17.67;;
69057;SDS011;56128;37.534;-122.308;2023-09-19T13:24:28;41.15;;;19.10;;
69057;SDS011;56128;37.534;-122.308;2023-09-19T13:26:56;40.67;;;18.60;;
69057;SDS011;56128;37.534;-122.308;2023-09-19T13:29:22;41.58;;;18.73;;
69057;SDS011;56128;37.534;-122.308;2023-09-19T13:31:49;42.50;;;19.00;;
69057;SDS011;56128;37.534;-122.308;2023-09-19T13:34:18;44.10;;;19.48;;
69057;SDS011;56128;37.534;-122.308;2023-09-19T13:36:45;44.92;;;18.30;;
69057;SDS011;56128;37.534;-122.308;2023-09-19T13:39:18;44.63;;;19.17;;
69057;SDS011;56128;37.534;-122.308;2023-09-19T13:41:45;37.28;;;17.40;;
69057;SDS011;56128;37.534;-122.308;2023-09-19T13:44:13;38.15;;;17.90;;
69057;SDS011;56128;37.534;-122.308;2023-09-19T13:46:39;41.20;;;18.77;;
69057;SDS011;56128;37.534;-122.308;2023-09-19T13:49:08;45.08;;;19.70;;
69057;SDS011;56128;37.534;-122.308;2023-09-19T13:51:35;41.03;;;17.98;;
69057;SDS011;56128;37.534;-122.308;2023-09-19T13:54:16;44.67;;;18.83;;
69057;SDS011;56128;37.534;-122.308;2023-09-19T13:56:43;45.17;;;19.88;;
69057;SDS011;56128;37.534;-122.308;2023-09-19T13:59:09;41.00;;;19.42;;
69057;SDS011;56128;37.534;-122.308;2023-09-19T14:01:36;44.60;;;19.30;;
69057;SDS011;56128;37.534;-122.308;2023-09-19T14:04:02;47.75;;;19.70;;
69057;SDS011;56128;37.534;-122.308;2023-09-19T14:06:28;49.85;;;21.70;;
69057;SDS011;56128;37.534;-122.308;2023-09-19T14:08:55;43.25;;;20.67;;
69057;SDS011;56128;37.534;-122.308;2023-09-19T14:11:21;50.40;;;21.58;;
69057;SDS011;56128;37.534;-122.308;2023-09-19T14:13:47;46.80;;;21.75;;
69057;SDS011;56128;37.534;-122.308;2023-09-19T14:16:15;50.15;;;21.50;;
69057;SDS011;56128;37.534;-122.308;2023-09-19T14:18:44;45.42;;;21.98;;
69057;SDS011;56128;37.534;-122.308;2023-09-19T14:21:11;48.58;;;21.52;;
69057;SDS011;56128;37.534;-122.308;2023-09-19T14:23:38;46.70;;;20.70;;
69057;SDS011;56128;37.534;-122.308;2023-09-19T14:26:04;44.80;;;22.42;;
69057;SDS011;56128;37.534;-122.308;2023-09-19T14:28:31;49.67;;;21.25;;
69057;SDS011;56128;37.534;-122.308;2023-09-19T14:31:05;46.28;;;21.92;;
69057;SDS011;56128;37.534;-122.308;2023-09-19T14:33:35;47.90;;;22.13;;
69057;SDS011;56128;37.534;-122.308;2023-09-19T14:36:05;42.95;;;21.30;;
69057;SDS011;56128;37.534;-122.308;2023-09-19T14:38:36;42.92;;;21.77;;
69057;SDS011;56128;37.534;-122.308;2023-09-19T14:41:04;45.20;;;21.33;;
69057;SDS011;56128;37.534;-122.308;2023-09-19T14:43:34;47.15;;;21.38;;
69057;SDS011;56128;37.534;-122.308;2023-09-19T14:50:10;43.30;;;20.00;;
69057;SDS011;56128;37.534;-122.308;2023-09-19T14:55:53;42.05;;;19.67;;
69057;SDS011;56128;37.534;-122.308;2023-09-19T14:58:20;42.50;;;21.13;;
69057;SDS011;56128;37.534;-122.308;2023-09-19T20:20:26;32.92;;;20.88;;
69057;SDS011;56128;37.534;-122.308;2023-09-19T20:22:57;31.20;;;22.02;;
69057;SDS011;56128;37.534;-122.308;2023-09-19T20:25:28;30.60;;;21.02;;
69057;SDS011;56128;37.534;-122.308;2023-09-19T20:27:59;29.33;;;20.48;;
69057;SDS011;56128;37.534;-122.308;2023-09-19T20:30:25;27.63;;;20.17;;
69057;SDS011;56128;37.534;-122.308;2023-09-19T20:33:11;27.88;;;20.10;;
69057;SDS011;56128;37.534;-122.308;2023-09-19T20:35:38;29.73;;;20.85;;
69057;SDS011;56128;37.534;-122.308;2023-09-19T20:38:06;30.48;;;21.00;;
69057;SDS011;56128;37.534;-122.308;2023-09-19T20:40:34;30.15;;;22.17;;
69057;SDS011;56128;37.534;-122.308;2023-09-19T20:43:02;29.52;;;20.73;;
69057;SDS011;56128;37.534;-122.308;2023-09-19T20:45:33;29.65;;;19.90;;
69057;SDS011;56128;37.534;-122.308;2023-09-19T20:48:05;28.95;;;20.15;;
69057;SDS011;56128;37.534;-122.308;2023-09-19T20:50:33;25.88;;;19.48;;
69057;SDS011;56128;37.534;-122.308;2023-09-19T20:53:02;29.27;;;19.63;;
69057;SDS011;56128;37.534;-122.308;2023-09-19T20:55:29;24.70;;;19.13;;
69057;SDS011;56128;37.534;-122.308;2023-09-19T20:57:58;25.15;;;19.10;;
69057;SDS011;56128;37.534;-122.308;2023-09-19T21:00:25;26.42;;;18.92;;
69057;SDS011;56128;37.534;-122.308;2023-09-19T21:02:57;24.25;;;18.35;;
69057;SDS011;56128;37.534;-122.308;2023-09-19T21:05:23;25.90;;;17.98;;
69057;SDS011;56128;37.534;-122.308;2023-09-19T21:07:49;30.27;;;19.83;;
69057;SDS011;56128;37.534;-122.308;2023-09-19T21:10:33;24.08;;;17.35;;
69057;SDS011;56128;37.534;-122.308;2023-09-19T21:13:01;25.02;;;17.73;;
69057;SDS011;56128;37.534;-122.308;2023-09-19T21:15:40;23.98;;;16.15;;
69057;SDS011;56128;37.534;-122.308;2023-09-19T21:18:07;26.35;;;17.42;;
69057;SDS011;56128;37.534;-122.308;2023-09-19T21:20:33;24.10;;;16.27;;
69057;SDS011;56128;37.534;-122.308;2023-09-19T21:23:08;26.10;;;16.73;;
69057;SDS011;56128;37.534;-122.308;2023-09-19T21:25:41;22.42;;;16.15;;
69057;SDS011;56128;37.534;-122.308;2023-09-19T21:28:18;24.30;;;16.42;;
69057;SDS011;56128;37.534;-122.308;2023-09-19T21:30:46;26.45;;;17.42;;
69057;SDS011;56128;37.534;-122.308;2023-09-19T21:33:21;26.25;;;17.00;;
69057;SDS011;56128;37.534;-122.308;2023-09-19T21:35:48;25.55;;;17.20;;
69057;SDS011;56128;37.534;-122.308;2023-09-19T21:38:24;27.35;;;17.27;;
69057;SDS011;56128;37.534;-122.308;2023-09-19T21:44:21;26.10;;;17.08;;
69057;SDS011;56128;37.534;-122.308;2023-09-19T21:46:48;28.40;;;17.83;;
69057;SDS011;56128;37.534;-122.308;2023-09-19T21:49:22;30.38;;;17.92;;
69057;SDS011;56128;37.534;-122.308;2023-09-19T21:52:03;27.70;;;16.98;;
69057;SDS011;56128;37.534;-122.308;2023-09-19T21:54:35;28.17;;;17.73;;
69057;SDS011;56128;37.534;-122.308;2023-09-19T21:57:07;26.58;;;16.02;;
69057;SDS011;56128;37.534;-122.308;2023-09-19T22:02:48;26.70;;;16.55;;
69057;SDS011;56128;37.534;-122.308;2023-09-19T22:05:27;30.30;;;17.35;;
69057;SDS011;56128;37.534;-122.308;2023-09-19T22:08:02;28.42;;;16.67;;
69057;SDS011;56128;37.534;-122.308;2023-09-19T22:10:46;27.02;;;17.17;;
69057;SDS011;56128;37.534;-122.308;2023-09-19T22:13:15;27.27;;;15.65;;
69057;SDS011;56128;37.534;-122.308;2023-09-19T22:15:57;26.73;;;16.92;;
69057;SDS011;56128;37.534;-122.308;2023-09-19T22:18:28;28.98;;;15.48;;
69057;SDS011;56128;37.534;-122.308;2023-09-19T22:20:56;24.65;;;16.17;;
69057;SDS011;56128;37.534;-122.308;2023-09-19T22:23:57;24.90;;;15.38;;
